Time;durP1;ratioP1;P1;durP2;ratioP2;P2;SDS_P1;SDS_P2;PMS_P1;PMS_P2;Temp;Humidity;BMP_temperature;BMP_pressure;BME280_temperature;BME280_humidity;BME280_pressure;Samples;Min_cycle;Max_cycle;Signal;HPM_P1;HPM_P2
2022/03/05 00:01:21;;;;;;;2.78;2.58;;;;;;;;;;5012297;28;20518;-76
2022/03/05 00:03:47;;;;;;;2.88;2.67;;;;;;;;;;5011962;28;20062;-75
2022/03/05 00:06:13;;;;;;;2.53;2.42;;;;;;;;;;5012380;28;20196;-76
2022/03/05 00:08:39;;;;;;;2.50;2.30;;;;;;;;;;4994588;28;20053;-76
2022/03/05 00:11:05;;;;;;;1.98;1.88;;;;;;;;;;5012340;28;20639;-76
2022/03/05 00:13:31;;;;;;;2.60;2.40;;;;;;;;;;5011885;28;20054;-77
2022/03/05 00:15:57;;;;;;;2.65;2.45;;;;;;;;;;4994618;28;20108;-76
2022/03/05 00:18:23;;;;;;;2.67;2.50;;;;;;;;;;5010897;28;20525;-76
2022/03/05 00:20:51;;;;;;;2.10;1.92;;;;;;;;;;5011919;28;20096;-76
2022/03/05 00:23:17;;;;;;;3.97;2.85;;;;;;;;;;5011585;28;20525;-75
2022/03/05 00:25:45;;;;;;;2.67;2.58;;;;;;;;;;5011831;28;20104;-75
2022/03/05 00:28:11;;;;;;;2.38;1.92;;;;;;;;;;4982169;28;20058;-75
2022/03/05 00:30:36;;;;;;;4.30;2.38;;;;;;;;;;4994165;28;20133;-76
2022/03/05 00:33:02;;;;;;;3.17;2.58;;;;;;;;;;5011679;28;20417;-76
2022/03/05 00:35:29;;;;;;;3.42;3.03;;;;;;;;;;5010363;28;20421;-76
2022/03/05 00:37:55;;;;;;;5.00;3.58;;;;;;;;;;5011407;28;20045;-76
2022/03/05 00:40:21;;;;;;;3.65;3.35;;;;;;;;;;4994208;28;20573;-76
2022/03/05 00:42:47;;;;;;;6.30;3.47;;;;;;;;;;5011169;28;20050;-75
2022/03/05 00:45:13;;;;;;;6.63;4.10;;;;;;;;;;5011548;28;20054;-76
2022/03/05 00:47:39;;;;;;;4.32;3.60;;;;;;;;;;5011568;28;20060;-76
2022/03/05 00:50:05;;;;;;;4.70;3.30;;;;;;;;;;5011865;28;20046;-76
2022/03/05 00:52:33;;;;;;;3.75;3.45;;;;;;;;;;5009999;28;20046;-75
2022/03/05 00:54:59;;;;;;;3.53;3.33;;;;;;;;;;4994570;28;20398;-75
2022/03/05 00:57:25;;;;;;;4.75;3.55;;;;;;;;;;5012597;28;20061;-77
2022/03/05 00:59:51;;;;;;;4.63;3.95;;;;;;;;;;4998744;28;20034;-75
2022/03/05 06:49:27;;;;;;;2.55;1.98;;;;;;;;;;5026019;28;20116;-74
2022/03/05 06:51:53;;;;;;;5.20;3.50;;;;;;;;;;5024842;28;20042;-74
2022/03/05 06:54:19;;;;;;;3.03;2.83;;;;;;;;;;5024353;28;20760;-76
2022/03/05 06:56:45;;;;;;;2.97;2.67;;;;;;;;;;5015090;28;20060;-74
2022/03/05 06:59:11;;;;;;;4.28;3.17;;;;;;;;;;5028358;28;20531;-74
2022/03/05 07:01:36;;;;;;;5.35;3.53;;;;;;;;;;5009296;28;20145;-74
2022/03/05 07:04:02;;;;;;;2.70;2.50;;;;;;;;;;5000377;28;20053;-74
2022/03/05 07:06:28;;;;;;;2.70;2.50;;;;;;;;;;5023317;28;20060;-74
2022/03/05 07:08:54;;;;;;;2.83;2.63;;;;;;;;;;5032235;28;20042;-75
2022/03/05 07:11:20;;;;;;;3.63;3.08;;;;;;;;;;5025294;28;20096;-74
2022/03/05 07:13:46;;;;;;;3.40;3.20;;;;;;;;;;5025048;28;20394;-75
2022/03/05 07:16:12;;;;;;;3.90;3.60;;;;;;;;;;5009442;28;20044;-75
2022/03/05 07:18:39;;;;;;;5.35;3.55;;;;;;;;;;5027036;28;20587;-74
2022/03/05 07:21:06;;;;;;;4.78;3.53;;;;;;;;;;5026912;28;20537;-75
2022/03/05 07:23:31;;;;;;;3.08;2.88;;;;;;;;;;5009276;28;20056;-74
2022/03/05 07:25:57;;;;;;;2.90;2.70;;;;;;;;;;5026846;28;20033;-74
2022/03/05 07:28:23;;;;;;;3.22;3.03;;;;;;;;;;5026106;28;20060;-74
2022/03/05 07:30:49;;;;;;;4.53;4.00;;;;;;;;;;5025809;28;20044;-74
2022/03/05 07:33:15;;;;;;;3.15;2.95;;;;;;;;;;5013747;28;20100;-74
2022/03/05 07:35:41;;;;;;;2.78;2.67;;;;;;;;;;5033555;28;20099;-74
2022/03/05 07:38:07;;;;;;;4.50;4.07;;;;;;;;;;5034033;28;20532;-74
2022/03/05 07:40:33;;;;;;;10.30;3.22;;;;;;;;;;5018280;28;20104;-74
2022/03/05 07:42:59;;;;;;;6.47;3.80;;;;;;;;;;5057564;28;20056;-74
2022/03/05 07:45:25;;;;;;;2.63;2.42;;;;;;;;;;5046702;28;20129;-74
2022/03/05 07:47:51;;;;;;;6.22;3.13;;;;;;;;;;5023900;28;20052;-75
2022/03/05 07:50:17;;;;;;;6.85;3.38;;;;;;;;;;5027014;28;20045;-75
2022/03/05 07:52:43;;;;;;;3.47;3.15;;;;;;;;;;5036900;28;20045;-75
2022/03/05 07:55:09;;;;;;;5.95;3.10;;;;;;;;;;5032417;28;20059;-74
2022/03/05 07:57:35;;;;;;;4.80;2.65;;;;;;;;;;5031843;28;20071;-75
2022/03/05 08:00:01;;;;;;;7.97;4.22;;;;;;;;;;5030865;28;20076;-73
2022/03/05 08:02:28;;;;;;;4.55;4.10;;;;;;;;;;5013501;28;20128;-74
2022/03/05 08:04:54;;;;;;;3.38;3.13;;;;;;;;;;5014637;28;20136;-74
2022/03/05 08:07:21;;;;;;;3.20;2.90;;;;;;;;;;5032363;28;20095;-74
2022/03/05 08:09:47;;;;;;;3.80;2.50;;;;;;;;;;4982440;28;20045;-75
2022/03/05 08:12:12;;;;;;;3.50;3.05;;;;;;;;;;5010945;28;20038;-75
2022/03/05 08:14:38;;;;;;;3.08;2.70;;;;;;;;;;5010871;28;20061;-74
2022/03/05 08:17:04;;;;;;;4.95;2.95;;;;;;;;;;5012100;28;20544;-74
2022/03/05 08:19:30;;;;;;;2.97;2.78;;;;;;;;;;4994676;28;20052;-74
2022/03/05 08:21:56;;;;;;;2.97;2.70;;;;;;;;;;5011868;28;20133;-74
2022/03/05 08:24:22;;;;;;;2.83;2.63;;;;;;;;;;5011930;28;20050;-75
2022/03/05 08:26:48;;;;;;;2.90;2.60;;;;;;;;;;4994360;28;20038;-74
2022/03/05 08:29:13;;;;;;;3.33;2.80;;;;;;;;;;5010429;28;20052;-74
2022/03/05 08:31:39;;;;;;;5.28;4.25;;;;;;;;;;5010800;28;20048;-75
2022/03/05 08:34:05;;;;;;;8.02;2.58;;;;;;;;;;5011684;28;20506;-75
2022/03/05 08:36:32;;;;;;;10.25;2.90;;;;;;;;;;5010490;28;20045;-75
2022/03/05 08:38:58;;;;;;;8.20;3.67;;;;;;;;;;4993753;28;20045;-74
2022/03/05 08:41:25;;;;;;;4.30;3.40;;;;;;;;;;5011850;28;20494;-75
2022/03/05 08:43:51;;;;;;;5.03;4.38;;;;;;;;;;5011344;28;20056;-74
2022/03/05 08:46:17;;;;;;;3.72;3.08;;;;;;;;;;5011572;28;20656;-74
2022/03/05 08:48:43;;;;;;;3.42;3.15;;;;;;;;;;5024294;28;20041;-74
2022/03/05 08:51:09;;;;;;;5.60;3.42;;;;;;;;;;5030994;28;20046;-74
2022/03/05 08:53:35;;;;;;;3.38;3.15;;;;;;;;;;5031407;28;20053;-74
2022/03/05 08:56:01;;;;;;;8.88;3.40;;;;;;;;;;5030987;28;20073;-74
2022/03/05 08:58:26;;;;;;;4.13;3.08;;;;;;;;;;5031253;28;20140;-74
2022/03/05 09:00:53;;;;;;;2.80;2.47;;;;;;;;;;5031112;28;20056;-74
2022/03/05 09:03:19;;;;;;;4.15;2.83;;;;;;;;;;5031102;28;20050;-74
2022/03/05 09:05:46;;;;;;;6.53;3.70;;;;;;;;;;5029570;28;20786;-74
2022/03/05 09:08:12;;;;;;;4.18;3.47;;;;;;;;;;5031000;28;20037;-74
2022/03/05 09:10:38;;;;;;;3.05;2.85;;;;;;;;;;5013505;28;20048;-74
2022/03/05 09:13:03;;;;;;;3.22;2.90;;;;;;;;;;5030674;28;20041;-74
2022/03/05 09:15:29;;;;;;;3.97;3.55;;;;;;;;;;5013103;28;20183;-74
2022/03/05 09:17:55;;;;;;;3.72;3.42;;;;;;;;;;5030621;28;20041;-74
2022/03/05 09:20:21;;;;;;;3.25;2.92;;;;;;;;;;5030899;28;20042;-74
2022/03/05 09:22:47;;;;;;;3.63;2.60;;;;;;;;;;5012899;28;20056;-74
2022/03/05 09:25:13;;;;;;;3.47;2.65;;;;;;;;;;5030381;28;20052;-73
2022/03/05 09:27:39;;;;;;;2.80;2.60;;;;;;;;;;5030563;28;20041;-74
2022/03/05 09:30:05;;;;;;;5.63;3.17;;;;;;;;;;5030324;28;20048;-74
2022/03/05 09:32:31;;;;;;;3.65;2.95;;;;;;;;;;5012992;28;20551;-74
2022/03/05 09:35:00;;;;;;;8.00;3.22;;;;;;;;;;5030258;28;20056;-74
2022/03/05 09:37:27;;;;;;;3.30;2.58;;;;;;;;;;5029126;28;20052;-74
2022/03/05 09:39:52;;;;;;;3.17;2.92;;;;;;;;;;5028882;28;20136;-74
2022/03/05 09:42:18;;;;;;;3.97;3.45;;;;;;;;;;5010459;28;20217;-74
2022/03/05 09:44:44;;;;;;;4.30;2.83;;;;;;;;;;5029177;28;20517;-74
2022/03/05 09:47:10;;;;;;;3.42;3.15;;;;;;;;;;5012366;28;20033;-74
2022/03/05 09:49:37;;;;;;;6.32;3.78;;;;;;;;;;5028966;28;20084;-74
2022/03/05 09:52:03;;;;;;;3.30;3.00;;;;;;;;;;5028883;28;20046;-75
2022/03/05 09:54:29;;;;;;;3.22;2.92;;;;;;;;;;5028058;28;20045;-74
2022/03/05 09:56:55;;;;;;;8.40;3.22;;;;;;;;;;5012532;28;20099;-74
2022/03/05 09:59:21;;;;;;;3.55;2.70;;;;;;;;;;5030020;28;20059;-74
2022/03/05 10:01:47;;;;;;;3.20;3.00;;;;;;;;;;5028542;28;20144;-74
2022/03/05 10:04:22;;;;;;;3.80;2.70;;;;;;;;;;5029294;28;20088;-74
2022/03/05 10:07:04;;;;;;;4.88;2.47;;;;;;;;;;5012174;28;20047;-74
2022/03/05 10:09:30;;;;;;;4.47;3.10;;;;;;;;;;5015140;28;20041;-74
2022/03/05 10:11:56;;;;;;;4.22;3.88;;;;;;;;;;5010174;28;20536;-75
2022/03/05 10:14:22;;;;;;;9.18;2.95;;;;;;;;;;5009907;28;20050;-74
2022/03/05 10:16:48;;;;;;;3.70;3.13;;;;;;;;;;5008887;28;20053;-74
2022/03/05 10:19:18;;;;;;;4.97;2.50;;;;;;;;;;5010005;28;20413;-74
2022/03/05 10:22:03;;;;;;;3.78;2.80;;;;;;;;;;5011742;28;20041;-75
2022/03/05 10:24:33;;;;;;;6.03;3.78;;;;;;;;;;4993642;28;20482;-74
2022/03/05 10:26:59;;;;;;;3.25;2.78;;;;;;;;;;5010479;28;20320;-75
2022/03/05 10:29:26;;;;;;;3.00;2.80;;;;;;;;;;5009911;28;20080;-74
2022/03/05 10:32:05;;;;;;;6.00;3.22;;;;;;;;;;5009827;28;20052;-74
2022/03/05 10:34:41;;;;;;;11.88;2.85;;;;;;;;;;5008691;28;20116;-74
2022/03/05 10:37:06;;;;;;;13.57;3.03;;;;;;;;;;4992455;28;20046;-75
2022/03/05 10:39:32;;;;;;;5.32;3.63;;;;;;;;;;5009898;28;20192;-75
2022/03/05 10:41:58;;;;;;;10.02;3.85;;;;;;;;;;5010032;28;20069;-74
2022/03/05 10:44:24;;;;;;;3.85;3.50;;;;;;;;;;4992439;28;20518;-75
2022/03/05 10:46:53;;;;;;;4.07;2.67;;;;;;;;;;4992357;28;20037;-74
2022/03/05 10:49:20;;;;;;;5.68;3.15;;;;;;;;;;5009641;28;20057;-74
2022/03/05 10:51:46;;;;;;;4.75;2.97;;;;;;;;;;4995510;28;20460;-74
2022/03/05 10:54:12;;;;;;;3.70;2.92;;;;;;;;;;5027865;28;20053;-74
2022/03/05 10:56:38;;;;;;;2.50;2.30;;;;;;;;;;5027179;28;20044;-74
2022/03/05 10:59:04;;;;;;;2.80;2.58;;;;;;;;;;5028475;28;20041;-75
2022/03/05 11:01:30;;;;;;;6.68;3.13;;;;;;;;;;5010537;28;20129;-74
2022/03/05 11:03:56;;;;;;;6.30;2.58;;;;;;;;;;5009487;28;20476;-75
2022/03/05 11:06:24;;;;;;;3.92;3.60;;;;;;;;;;5028324;28;20037;-74
2022/03/05 11:08:50;;;;;;;5.28;3.58;;;;;;;;;;4981901;28;20045;-75
2022/03/05 11:11:17;;;;;;;6.82;3.38;;;;;;;;;;5032260;28;20124;-74
2022/03/05 11:13:42;;;;;;;3.38;3.08;;;;;;;;;;5031802;28;20057;-74
2022/03/05 11:16:09;;;;;;;6.35;2.47;;;;;;;;;;5032863;28;20077;-74
2022/03/05 11:18:35;;;;;;;7.00;3.25;;;;;;;;;;5015202;28;20598;-74
2022/03/05 11:21:02;;;;;;;3.08;2.78;;;;;;;;;;5032697;28;20056;-75
2022/03/05 11:23:28;;;;;;;2.83;2.63;;;;;;;;;;4999153;28;20049;-75
2022/03/05 11:25:54;;;;;;;2.50;2.40;;;;;;;;;;5032886;28;20522;-74
2022/03/05 11:28:20;;;;;;;3.08;2.80;;;;;;;;;;5015182;28;20520;-74
2022/03/05 11:30:46;;;;;;;6.35;3.20;;;;;;;;;;4982427;28;20069;-73
2022/03/05 11:33:21;;;;;;;3.00;2.80;;;;;;;;;;5032673;28;20591;-77
2022/03/05 11:35:48;;;;;;;3.15;2.95;;;;;;;;;;5015293;28;20133;-76
2022/03/05 11:38:46;;;;;;;4.38;2.70;;;;;;;;;;5032674;28;20044;-78
2022/03/05 11:41:22;;;;;;;2.70;2.50;;;;;;;;;;4986926;28;20494;-78
2022/03/05 11:43:48;;;;;;;3.70;3.13;;;;;;;;;;5025228;28;20064;-78
2022/03/05 11:46:24;;;;;;;3.65;3.15;;;;;;;;;;5032276;28;20042;-77
2022/03/05 11:49:03;;;;;;;3.70;3.28;;;;;;;;;;5011262;28;20458;-77
2022/03/05 11:51:29;;;;;;;4.03;3.25;;;;;;;;;;4992555;28;20581;-77
2022/03/05 11:54:24;;;;;;;3.15;2.92;;;;;;;;;;4990648;28;20046;-78
2022/03/05 11:57:00;;;;;;;4.13;3.08;;;;;;;;;;4983273;28;20065;-77
2022/03/05 11:59:33;;;;;;;3.60;3.30;;;;;;;;;;4991255;28;20105;-76
2022/03/05 12:02:00;;;;;;;3.85;2.92;;;;;;;;;;4992818;28;20077;-77
2022/03/05 12:04:28;;;;;;;3.50;3.22;;;;;;;;;;4992719;28;20054;-77
2022/03/05 12:07:03;;;;;;;7.85;3.15;;;;;;;;;;4992801;28;20133;-77
2022/03/05 12:09:41;;;;;;;6.35;3.13;;;;;;;;;;5005963;28;20046;-77
2022/03/05 12:12:14;;;;;;;2.42;2.30;;;;;;;;;;5010734;28;20050;-77
2022/03/05 12:14:56;;;;;;;3.97;3.35;;;;;;;;;;5014370;28;20052;-77
2022/03/05 12:17:22;;;;;;;4.82;3.00;;;;;;;;;;4977703;28;20042;-78
2022/03/05 12:19:48;;;;;;;3.92;2.75;;;;;;;;;;4994384;28;20501;-78
2022/03/05 12:22:14;;;;;;;3.97;3.55;;;;;;;;;;5011943;28;20096;-78
2022/03/05 12:24:40;;;;;;;3.30;2.90;;;;;;;;;;5012136;28;20084;-79
2022/03/05 12:27:09;;;;;;;5.57;2.75;;;;;;;;;;5019245;28;20080;-77
2022/03/05 12:29:35;;;;;;;3.75;3.25;;;;;;;;;;5030116;28;20076;-77
2022/03/05 12:32:01;;;;;;;7.60;2.80;;;;;;;;;;5012758;28;20041;-77
2022/03/05 12:34:27;;;;;;;3.05;2.50;;;;;;;;;;5029032;28;20609;-76
2022/03/05 12:36:53;;;;;;;2.30;2.20;;;;;;;;;;5029526;28;20123;-78
2022/03/05 12:39:23;;;;;;;2.85;2.65;;;;;;;;;;5013654;28;20140;-78
2022/03/05 12:41:49;;;;;;;2.72;2.53;;;;;;;;;;5009098;28;20081;-77
2022/03/05 12:44:15;;;;;;;3.90;2.90;;;;;;;;;;4996499;28;20053;-79
2022/03/05 12:46:41;;;;;;;3.10;2.83;;;;;;;;;;5009294;28;20049;-79
2022/03/05 12:49:07;;;;;;;5.13;2.78;;;;;;;;;;5021109;28;20114;-78
2022/03/05 12:51:33;;;;;;;5.05;2.15;;;;;;;;;;5027463;28;20521;-74
2022/03/05 12:54:00;;;;;;;6.05;2.83;;;;;;;;;;4991355;28;20050;-75
2022/03/05 12:56:27;;;;;;;3.10;2.88;;;;;;;;;;5022391;28;20042;-75
2022/03/05 12:58:57;;;;;;;2.55;2.35;;;;;;;;;;5006587;28;20045;-75
2022/03/05 13:01:23;;;;;;;6.15;2.50;;;;;;;;;;5027743;28;20041;-74
2022/03/05 13:03:50;;;;;;;6.78;2.60;;;;;;;;;;5027118;28;20057;-74
2022/03/05 13:06:17;;;;;;;3.30;3.00;;;;;;;;;;5023245;28;20120;-74
2022/03/05 13:08:43;;;;;;;3.55;3.20;;;;;;;;;;5034820;28;20526;-74
2022/03/05 13:11:16;;;;;;;2.42;2.22;;;;;;;;;;5049558;28;20050;-74
2022/03/05 13:13:45;;;;;;;2.90;2.70;;;;;;;;;;5030981;28;20091;-74
2022/03/05 13:16:11;;;;;;;3.25;2.95;;;;;;;;;;5029680;28;20033;-75
2022/03/05 13:18:37;;;;;;;2.90;2.70;;;;;;;;;;5029627;28;20037;-75
2022/03/05 13:21:05;;;;;;;2.67;2.47;;;;;;;;;;5028647;28;21068;-75
2022/03/05 13:23:33;;;;;;;3.22;2.95;;;;;;;;;;5029635;28;20057;-74
2022/03/05 13:25:59;;;;;;;2.75;2.55;;;;;;;;;;5017595;28;20095;-75
2022/03/05 13:28:25;;;;;;;2.53;2.33;;;;;;;;;;5010655;28;20041;-75
2022/03/05 13:30:52;;;;;;;2.40;2.30;;;;;;;;;;5028318;28;20045;-74
2022/03/05 13:33:33;;;;;;;2.58;2.47;;;;;;;;;;5028872;28;20492;-75
2022/03/05 13:35:59;;;;;;;2.10;2.00;;;;;;;;;;5029597;28;20069;-75
2022/03/05 13:38:26;;;;;;;2.60;2.38;;;;;;;;;;5027567;28;20485;-75
2022/03/05 13:40:52;;;;;;;2.42;2.33;;;;;;;;;;5012586;28;20072;-76
2022/03/05 13:43:21;;;;;;;2.42;2.22;;;;;;;;;;5028620;28;20110;-75
2022/03/05 13:45:47;;;;;;;3.35;2.33;;;;;;;;;;5029800;28;20331;-75
2022/03/05 13:48:15;;;;;;;8.73;4.05;;;;;;;;;;5023978;28;20038;-75
2022/03/05 13:50:42;;;;;;;7.03;3.67;;;;;;;;;;5031748;28;20045;-78
2022/03/05 13:53:11;;;;;;;3.75;2.45;;;;;;;;;;5056341;28;20040;-78
2022/03/05 13:55:39;;;;;;;6.15;2.55;;;;;;;;;;5037798;28;20045;-77
2022/03/05 13:58:18;;;;;;;4.53;2.97;;;;;;;;;;5034959;28;20037;-77
2022/03/05 14:00:44;;;;;;;6.65;3.13;;;;;;;;;;5049565;28;20037;-78
2022/03/05 14:03:14;;;;;;;4.32;2.30;;;;;;;;;;5049688;28;20140;-77
2022/03/05 14:05:40;;;;;;;6.20;2.63;;;;;;;;;;5030483;28;20045;-77
2022/03/05 14:08:06;;;;;;;3.70;2.60;;;;;;;;;;5028880;28;20072;-74
2022/03/05 14:10:32;;;;;;;2.83;2.60;;;;;;;;;;5047748;28;20045;-75
2022/03/05 14:12:58;;;;;;;3.15;2.75;;;;;;;;;;5057523;28;20047;-74
2022/03/05 14:15:28;;;;;;;3.28;2.55;;;;;;;;;;5032607;28;20103;-75
2022/03/05 14:18:01;;;;;;;6.40;3.13;;;;;;;;;;5050324;28;20048;-74
2022/03/05 14:20:29;;;;;;;6.90;2.65;;;;;;;;;;4962326;28;20123;-74
2022/03/05 14:22:56;;;;;;;2.38;2.28;;;;;;;;;;5012314;28;20045;-74
2022/03/05 14:25:24;;;;;;;2.97;2.55;;;;;;;;;;5011862;28;20088;-74
2022/03/05 14:27:55;;;;;;;2.38;2.28;;;;;;;;;;5029382;28;20068;-74
2022/03/05 14:30:21;;;;;;;3.63;2.55;;;;;;;;;;4980359;28;20228;-75
2022/03/05 14:32:47;;;;;;;3.45;2.53;;;;;;;;;;5023475;28;20053;-76
2022/03/05 14:35:13;;;;;;;5.05;2.83;;;;;;;;;;5033703;28;20049;-76
2022/03/05 14:37:39;;;;;;;3.10;2.10;;;;;;;;;;5043082;28;20037;-77
2022/03/05 14:40:06;;;;;;;2.25;2.05;;;;;;;;;;5011172;28;20041;-77
2022/03/05 14:42:32;;;;;;;2.28;1.98;;;;;;;;;;5029358;28;20049;-80
2022/03/05 14:44:58;;;;;;;12.75;3.92;;;;;;;;;;5029610;28;20085;-77
2022/03/05 14:47:24;;;;;;;3.55;2.38;;;;;;;;;;5030758;28;20063;-80
2022/03/05 14:49:51;;;;;;;2.47;1.83;;;;;;;;;;5010713;28;20778;-75
2022/03/05 14:52:21;;;;;;;3.00;1.83;;;;;;;;;;5005225;28;20371;-74
2022/03/05 14:54:49;;;;;;;2.15;1.98;;;;;;;;;;5000112;28;20515;-77
2022/03/05 14:57:20;;;;;;;2.90;2.70;;;;;;;;;;4976164;28;20089;-79
2022/03/05 14:59:49;;;;;;;2.67;2.08;;;;;;;;;;4989262;28;20050;-80
2022/03/05 15:02:15;;;;;;;2.20;2.10;;;;;;;;;;4958287;28;20076;-79
2022/03/05 15:04:42;;;;;;;1.52;1.42;;;;;;;;;;4998296;28;20526;-78
2022/03/05 15:07:08;;;;;;;3.47;3.15;;;;;;;;;;4995818;28;20042;-77
2022/03/05 15:09:34;;;;;;;3.55;3.10;;;;;;;;;;5015667;28;20045;-78
2022/03/05 15:12:00;;;;;;;2.40;2.15;;;;;;;;;;4982369;28;20046;-77
2022/03/05 15:14:27;;;;;;;3.35;2.92;;;;;;;;;;5012886;28;20518;-76
2022/03/05 15:16:56;;;;;;;5.03;2.67;;;;;;;;;;5015089;28;20112;-77
2022/03/05 15:19:24;;;;;;;6.70;2.35;;;;;;;;;;5016410;28;20514;-77
2022/03/05 15:21:50;;;;;;;7.95;2.05;;;;;;;;;;5026648;28;20044;-77
2022/03/05 15:24:16;;;;;;;4.13;2.45;;;;;;;;;;5035667;28;20834;-77
2022/03/05 15:26:43;;;;;;;6.50;2.78;;;;;;;;;;5019262;28;20505;-76
2022/03/05 15:29:09;;;;;;;3.25;2.13;;;;;;;;;;5035396;28;20056;-77
2022/03/05 15:31:35;;;;;;;3.25;3.05;;;;;;;;;;5034825;28;20038;-77
2022/03/05 15:34:01;;;;;;;2.50;2.30;;;;;;;;;;5034184;28;20041;-78
2022/03/05 15:36:27;;;;;;;2.20;2.03;;;;;;;;;;5027001;28;20511;-77
2022/03/05 15:38:53;;;;;;;2.50;2.30;;;;;;;;;;5009350;28;20537;-76
2022/03/05 15:41:23;;;;;;;3.70;3.40;;;;;;;;;;5026894;28;20065;-76
2022/03/05 15:43:49;;;;;;;4.15;2.72;;;;;;;;;;5025290;28;20056;-76
2022/03/05 15:46:16;;;;;;;3.03;2.45;;;;;;;;;;5027182;28;20038;-77
2022/03/05 15:48:42;;;;;;;2.70;2.50;;;;;;;;;;5024661;28;20804;-77
2022/03/05 15:51:10;;;;;;;3.45;3.13;;;;;;;;;;4989843;28;20104;-77
2022/03/05 15:53:48;;;;;;;5.53;3.20;;;;;;;;;;5011016;28;20045;-77
2022/03/05 15:56:38;;;;;;;3.03;2.83;;;;;;;;;;4994009;28;20072;-78
2022/03/05 15:59:04;;;;;;;3.05;2.85;;;;;;;;;;5009766;28;20033;-76
2022/03/05 16:01:31;;;;;;;3.03;2.83;;;;;;;;;;5010632;28;20076;-77
2022/03/05 16:04:06;;;;;;;3.20;2.78;;;;;;;;;;4990952;28;20058;-78
2022/03/05 16:06:33;;;;;;;2.92;2.58;;;;;;;;;;5007068;28;20053;-77
2022/03/05 16:12:10;;;;;;;7.95;2.97;;;;;;;;;;5000983;28;20077;-77
2022/03/05 16:14:36;;;;;;;4.38;3.70;;;;;;;;;;4975068;28;20077;-76
2022/03/05 16:17:04;;;;;;;4.18;3.75;;;;;;;;;;4982591;28;20409;-75
2022/03/05 16:19:31;;;;;;;4.40;4.00;;;;;;;;;;4992758;28;20050;-76
2022/03/05 16:21:57;;;;;;;4.68;3.28;;;;;;;;;;4994034;28;20097;-76
2022/03/05 16:24:23;;;;;;;6.25;3.50;;;;;;;;;;4973906;28;20069;-76
2022/03/05 16:26:49;;;;;;;5.53;3.90;;;;;;;;;;4973036;28;20490;-75
2022/03/05 16:29:16;;;;;;;4.25;3.83;;;;;;;;;;5010772;28;20046;-77
2022/03/05 16:31:42;;;;;;;4.15;3.78;;;;;;;;;;4977323;28;20076;-77
2022/03/05 16:34:08;;;;;;;7.05;3.13;;;;;;;;;;4954262;28;20076;-77
2022/03/05 16:36:37;;;;;;;3.42;3.13;;;;;;;;;;5026739;28;20065;-77
2022/03/05 16:39:09;;;;;;;3.75;3.45;;;;;;;;;;5011386;28;20068;-76
2022/03/05 16:41:35;;;;;;;5.20;3.35;;;;;;;;;;5020116;28;20049;-78
2022/03/05 16:44:01;;;;;;;2.97;2.78;;;;;;;;;;5037626;28;20049;-77
2022/03/05 16:46:29;;;;;;;5.22;3.80;;;;;;;;;;5028729;28;20045;-76
2022/03/05 16:48:55;;;;;;;6.13;3.00;;;;;;;;;;5040571;28;20054;-77
2022/03/05 16:51:23;;;;;;;4.20;3.80;;;;;;;;;;5013097;28;20092;-76
2022/03/05 16:53:49;;;;;;;5.63;4.05;;;;;;;;;;5007233;28;20428;-76
2022/03/05 16:56:16;;;;;;;3.85;3.53;;;;;;;;;;5027284;28;20039;-76
2022/03/05 16:58:41;;;;;;;6.18;4.03;;;;;;;;;;5043130;28;20063;-77
2022/03/05 17:01:13;;;;;;;5.57;3.90;;;;;;;;;;4992061;28;20049;-77
2022/03/05 17:03:40;;;;;;;7.28;4.10;;;;;;;;;;4979316;28;20143;-77
2022/03/05 17:06:06;;;;;;;5.70;3.90;;;;;;;;;;5028516;28;20513;-77
2022/03/05 17:08:35;;;;;;;9.27;4.90;;;;;;;;;;5025699;28;20052;-77
2022/03/05 17:11:01;;;;;;;5.20;3.67;;;;;;;;;;5008682;28;20422;-77
2022/03/05 17:13:27;;;;;;;3.70;3.40;;;;;;;;;;5011866;28;20063;-77
2022/03/05 17:15:52;;;;;;;3.58;3.38;;;;;;;;;;5028170;28;20043;-77
2022/03/05 17:18:20;;;;;;;4.15;3.75;;;;;;;;;;4979204;28;20603;-77
2022/03/05 17:20:46;;;;;;;5.03;3.15;;;;;;;;;;5027806;28;20087;-78
2022/03/05 17:23:12;;;;;;;2.75;2.55;;;;;;;;;;4980009;28;20056;-78
2022/03/05 17:25:38;;;;;;;3.05;2.85;;;;;;;;;;5015203;28;20567;-78
2022/03/05 17:28:04;;;;;;;4.80;3.95;;;;;;;;;;5031874;28;20123;-77
2022/03/05 17:30:31;;;;;;;3.88;3.55;;;;;;;;;;4998666;28;20481;-77
2022/03/05 17:32:59;;;;;;;5.18;3.72;;;;;;;;;;5049355;28;20045;-78
2022/03/05 17:35:24;;;;;;;4.35;3.65;;;;;;;;;;5020105;28;20041;-77
2022/03/05 17:37:53;;;;;;;4.97;3.88;;;;;;;;;;5029322;28;20042;-78
2022/03/05 17:40:27;;;;;;;5.55;3.65;;;;;;;;;;5031754;28;20427;-77
2022/03/05 17:42:53;;;;;;;4.57;3.13;;;;;;;;;;5041673;28;20132;-77
2022/03/05 17:45:19;;;;;;;3.35;3.00;;;;;;;;;;5027415;28;20819;-76
2022/03/05 17:47:46;;;;;;;3.22;2.95;;;;;;;;;;5043885;28;20037;-77
2022/03/05 17:50:12;;;;;;;3.10;2.90;;;;;;;;;;5027944;28;20049;-77
2022/03/05 17:52:38;;;;;;;2.78;2.55;;;;;;;;;;5037005;28;20386;-77
2022/03/05 17:55:04;;;;;;;3.63;2.35;;;;;;;;;;5045214;28;20103;-77
2022/03/05 17:57:30;;;;;;;3.40;3.20;;;;;;;;;;5048529;28;20094;-77
2022/03/05 17:59:57;;;;;;;2.88;2.55;;;;;;;;;;5048853;28;20489;-78
2022/03/05 18:02:23;;;;;;;6.85;3.78;;;;;;;;;;5016915;28;20124;-76
2022/03/05 18:04:49;;;;;;;3.45;2.90;;;;;;;;;;5048895;28;20057;-77
2022/03/05 18:07:23;;;;;;;3.30;2.50;;;;;;;;;;5051354;28;20041;-77
2022/03/05 18:09:50;;;;;;;3.47;3.08;;;;;;;;;;5051029;28;20044;-77
2022/03/05 18:12:16;;;;;;;2.75;2.55;;;;;;;;;;5050618;28;20044;-77
2022/03/05 18:14:42;;;;;;;2.58;2.42;;;;;;;;;;5033806;28;20045;-76
2022/03/05 18:17:08;;;;;;;2.55;2.40;;;;;;;;;;5033151;28;20044;-77
2022/03/05 18:19:35;;;;;;;2.65;2.45;;;;;;;;;;4978107;28;20041;-77
2022/03/05 18:22:01;;;;;;;3.05;2.80;;;;;;;;;;5013949;28;20444;-77
2022/03/05 18:24:27;;;;;;;3.30;3.10;;;;;;;;;;4978949;28;20067;-76
2022/03/05 18:26:53;;;;;;;3.53;3.05;;;;;;;;;;5017325;28;20057;-77
2022/03/05 18:29:19;;;;;;;2.13;2.03;;;;;;;;;;5032181;28;20076;-78
2022/03/05 18:31:46;;;;;;;2.50;2.30;;;;;;;;;;5017046;28;20044;-77
2022/03/05 18:34:12;;;;;;;2.50;2.40;;;;;;;;;;5016502;28;20046;-79
2022/03/05 18:36:38;;;;;;;2.85;2.65;;;;;;;;;;5016472;28;20045;-78
2022/03/05 18:39:08;;;;;;;4.20;3.45;;;;;;;;;;4987260;28;20045;-77
2022/03/05 18:41:35;;;;;;;4.05;3.75;;;;;;;;;;5020799;28;20060;-79
2022/03/05 18:44:01;;;;;;;3.72;3.33;;;;;;;;;;5013868;28;20052;-78
2022/03/05 18:46:29;;;;;;;5.00;3.67;;;;;;;;;;4994883;28;20071;-78
2022/03/05 18:49:05;;;;;;;5.40;3.10;;;;;;;;;;5060370;28;20120;-78
2022/03/05 18:51:32;;;;;;;4.13;3.47;;;;;;;;;;5051486;28;20037;-78
2022/03/05 18:53:58;;;;;;;2.53;2.33;;;;;;;;;;5032428;28;20045;-78
2022/03/05 18:56:25;;;;;;;4.60;3.78;;;;;;;;;;5034741;28;20037;-78
2022/03/05 18:58:51;;;;;;;3.47;3.22;;;;;;;;;;5018861;28;20040;-79
2022/03/05 19:01:17;;;;;;;2.78;2.60;;;;;;;;;;5017639;28;20047;-78
2022/03/05 19:03:43;;;;;;;3.38;3.17;;;;;;;;;;5033261;28;20048;-77
2022/03/05 19:06:09;;;;;;;3.08;2.88;;;;;;;;;;5016760;28;20041;-79
2022/03/05 19:08:37;;;;;;;2.75;2.47;;;;;;;;;;5026017;28;20048;-78
2022/03/05 19:11:03;;;;;;;3.53;3.33;;;;;;;;;;5012787;28;20034;-77
2022/03/05 19:13:30;;;;;;;3.85;3.42;;;;;;;;;;5013389;28;20095;-77
2022/03/05 19:15:56;;;;;;;3.60;2.97;;;;;;;;;;5027496;28;20044;-77
2022/03/05 19:18:22;;;;;;;6.93;4.93;;;;;;;;;;4992915;28;20038;-77
2022/03/05 19:20:48;;;;;;;3.00;2.80;;;;;;;;;;4995601;28;20041;-79
2022/03/05 19:23:14;;;;;;;3.22;2.92;;;;;;;;;;5021289;28;20053;-78
2022/03/05 19:25:41;;;;;;;7.70;2.97;;;;;;;;;;5011123;28;20096;-80
2022/03/05 19:28:07;;;;;;;6.38;4.10;;;;;;;;;;5028057;28;20034;-79
2022/03/05 19:30:33;;;;;;;2.70;2.50;;;;;;;;;;5044695;28;20054;-79
2022/03/05 19:33:00;;;;;;;3.75;3.55;;;;;;;;;;5033902;28;20088;-79
2022/03/05 19:35:26;;;;;;;3.85;3.45;;;;;;;;;;5030378;28;20049;-79
2022/03/05 19:37:59;;;;;;;4.05;3.75;;;;;;;;;;5032478;28;20037;-78
2022/03/05 19:40:26;;;;;;;4.75;4.32;;;;;;;;;;5032612;28;20497;-79
2022/03/05 19:42:52;;;;;;;4.90;3.63;;;;;;;;;;5042339;28;20037;-78
2022/03/05 19:45:18;;;;;;;3.78;3.42;;;;;;;;;;5004577;28;20037;-80
2022/03/05 19:47:44;;;;;;;6.43;3.85;;;;;;;;;;5031111;28;20056;-79
2022/03/05 19:50:11;;;;;;;5.10;4.07;;;;;;;;;;4999875;28;20045;-79
2022/03/05 19:52:37;;;;;;;5.22;3.63;;;;;;;;;;5014897;28;20045;-78
2022/03/05 19:55:04;;;;;;;6.95;4.70;;;;;;;;;;5013945;28;20069;-78
2022/03/05 19:57:30;;;;;;;4.35;3.97;;;;;;;;;;5027420;28;20037;-78
2022/03/05 19:59:56;;;;;;;6.15;5.65;;;;;;;;;;5033668;28;20052;-79
2022/03/05 20:02:22;;;;;;;4.78;4.28;;;;;;;;;;5033353;28;20049;-79
2022/03/05 20:04:48;;;;;;;5.03;4.72;;;;;;;;;;5016963;28;20053;-77
2022/03/05 20:07:14;;;;;;;6.68;4.90;;;;;;;;;;4993317;28;20417;-78
2022/03/05 20:09:40;;;;;;;4.28;3.88;;;;;;;;;;5031847;28;20064;-79
2022/03/05 20:12:06;;;;;;;4.15;3.75;;;;;;;;;;5022147;28;20128;-79
2022/03/05 20:14:32;;;;;;;6.45;5.85;;;;;;;;;;5015445;28;20052;-78
2022/03/05 20:17:00;;;;;;;7.07;6.40;;;;;;;;;;4980519;28;20056;-76
2022/03/05 20:19:26;;;;;;;5.43;4.82;;;;;;;;;;5031630;28;20041;-80
2022/03/05 20:21:52;;;;;;;5.22;4.70;;;;;;;;;;5025547;28;20188;-79
2022/03/05 20:24:18;;;;;;;8.13;5.70;;;;;;;;;;5028578;28;20304;-79
2022/03/05 20:26:46;;;;;;;5.47;4.97;;;;;;;;;;4995770;28;20127;-79
2022/03/05 20:29:12;;;;;;;5.55;5.05;;;;;;;;;;5012009;28;20128;-79
2022/03/05 20:31:40;;;;;;;11.30;4.22;;;;;;;;;;5029218;28;20139;-81
2022/03/05 20:34:10;;;;;;;6.35;5.50;;;;;;;;;;5046132;28;20048;-79